createdAt,value
2019-06-26T00:00:00.188Z,13.77
2019-06-26T00:02:29.524Z,13.33
2019-06-26T00:04:58.864Z,13.77
2019-06-26T00:07:28.131Z,12.27
2019-06-26T00:09:57.497Z,13.50
2019-06-26T00:12:27.001Z,13.50
2019-06-26T00:14:56.352Z,13.10
2019-06-26T00:17:26.637Z,13.23
2019-06-26T00:19:55.962Z,14.20
2019-06-26T00:22:25.273Z,14.43
2019-06-26T00:24:54.557Z,14.13
2019-06-26T00:27:23.929Z,13.87
2019-06-26T00:29:54.922Z,13.73
2019-06-26T00:32:24.225Z,13.17
2019-06-26T00:34:53.690Z,13.60
2019-06-26T00:37:22.993Z,14.07
2019-06-26T00:39:52.278Z,14.60
2019-06-26T00:42:21.617Z,14.50
2019-06-26T00:44:50.935Z,14.07
2019-06-26T00:47:20.284Z,14.10
2019-06-26T00:49:49.591Z,15.13
2019-06-26T00:52:18.975Z,15.27
2019-06-26T00:54:48.356Z,14.30
2019-06-26T00:57:17.689Z,14.97
2019-06-26T00:59:48.058Z,14.80
2019-06-26T01:02:17.533Z,15.47
2019-06-26T01:04:48.715Z,15.73
2019-06-26T01:07:18.094Z,14.90
2019-06-26T01:09:47.394Z,14.23
2019-06-26T01:12:16.783Z,15.43
2019-06-26T01:14:46.060Z,14.47
2019-06-26T01:17:15.395Z,15.70
2019-06-26T01:19:44.680Z,15.87
2019-06-26T01:22:13.963Z,15.77
2019-06-26T01:24:43.227Z,15.40
2019-06-26T01:27:12.525Z,15.37
2019-06-26T01:29:41.899Z,15.87
2019-06-26T01:32:12.287Z,15.17
2019-06-26T01:34:41.763Z,16.00
2019-06-26T01:37:11.133Z,14.87
2019-06-26T01:39:40.460Z,15.80
2019-06-26T01:42:09.774Z,15.30
2019-06-26T01:44:39.042Z,15.50
2019-06-26T01:47:08.321Z,15.93
2019-06-26T01:49:37.615Z,16.27
2019-06-26T01:52:06.997Z,15.47
2019-06-26T01:54:36.254Z,15.50
2019-06-26T01:57:05.735Z,14.37
2019-06-26T01:59:35.145Z,15.60
2019-06-26T02:02:04.738Z,15.13
2019-06-26T02:04:34.200Z,17.20
2019-06-26T02:07:03.548Z,14.87
2019-06-26T02:09:32.800Z,16.47
2019-06-26T02:12:02.128Z,16.07
2019-06-26T02:14:32.007Z,17.30
2019-06-26T02:17:01.341Z,17.80
2019-06-26T02:19:30.679Z,17.73
2019-06-26T02:21:59.984Z,16.83
2019-06-26T02:24:29.305Z,16.87
2019-06-26T02:26:58.649Z,17.70
2019-06-26T02:29:27.958Z,17.10
2019-06-26T02:31:57.217Z,17.67
2019-06-26T02:34:25.303Z,17.00
2019-06-26T02:36:54.532Z,17.17
2019-06-26T02:39:23.804Z,18.03
2019-06-26T02:41:53.061Z,17.60
2019-06-26T02:44:22.354Z,17.10
2019-06-26T02:46:51.609Z,18.13
2019-06-26T02:49:20.879Z,18.03
2019-06-26T02:51:51.486Z,17.50
2019-06-26T02:54:20.773Z,16.40
2019-06-26T02:56:50.116Z,17.80
2019-06-26T02:59:19.434Z,18.17
2019-06-26T03:01:48.740Z,18.37
2019-06-26T03:04:18.085Z,17.90
2019-06-26T03:06:47.362Z,18.57
2019-06-26T03:09:16.666Z,18.33
2019-06-26T03:11:45.941Z,18.43
2019-06-26T03:14:15.267Z,18.93
2019-06-26T03:16:44.546Z,18.33
2019-06-26T03:19:13.862Z,18.83
2019-06-26T03:21:43.128Z,18.47
2019-06-26T03:24:12.377Z,18.90
2019-06-26T03:26:41.680Z,19.33
2019-06-26T03:29:10.977Z,18.60
2019-06-26T03:31:40.407Z,19.67
2019-06-26T03:34:11.406Z,19.83
2019-06-26T03:36:40.758Z,19.20
2019-06-26T03:39:10.058Z,20.13
2019-06-26T03:41:39.485Z,19.07
2019-06-26T03:44:08.751Z,19.47
2019-06-26T03:46:38.087Z,19.17
2019-06-26T03:49:07.361Z,19.73
2019-06-26T03:51:36.695Z,19.27
2019-06-26T03:54:05.999Z,18.83
2019-06-26T03:56:35.295Z,21.43
2019-06-26T03:59:04.581Z,20.33
2019-06-26T04:01:33.910Z,18.57
2019-06-26T04:04:03.245Z,19.80
2019-06-26T04:06:32.500Z,20.37
2019-06-26T04:09:01.809Z,19.47
2019-06-26T04:11:31.061Z,19.53
2019-06-26T04:14:00.362Z,19.43
2019-06-26T04:16:29.664Z,21.03
2019-06-26T04:18:58.940Z,21.50
2019-06-26T04:21:28.204Z,22.30
2019-06-26T04:23:57.564Z,21.03
2019-06-26T04:26:26.883Z,20.57
2019-06-26T04:28:56.209Z,19.93
2019-06-26T04:31:25.611Z,20.57
2019-06-26T04:33:54.919Z,21.40
2019-06-26T04:36:24.225Z,19.90
2019-06-26T04:38:53.655Z,20.53
2019-06-26T04:41:23.015Z,22.73
2019-06-26T04:43:52.380Z,23.13
2019-06-26T04:46:21.836Z,22.67
2019-06-26T04:48:51.254Z,22.67
2019-06-26T04:51:20.689Z,22.60
2019-06-26T04:53:50.021Z,23.37
2019-06-26T04:56:19.309Z,22.80
2019-06-26T04:58:48.733Z,24.87
2019-06-26T05:01:18.040Z,26.70
2019-06-26T05:03:47.375Z,26.37
2019-06-26T05:06:16.722Z,25.70
2019-06-26T05:08:46.073Z,27.97
2019-06-26T05:11:16.573Z,27.13
2019-06-26T05:13:45.885Z,25.80
2019-06-26T05:16:19.221Z,27.60
2019-06-26T05:18:46.305Z,27.60
2019-06-26T05:21:15.625Z,32.83
2019-06-26T05:23:45.278Z,29.80
2019-06-26T05:26:14.628Z,28.60
2019-06-26T05:28:44.031Z,29.17
2019-06-26T05:31:13.385Z,31.50
2019-06-26T05:33:44.093Z,34.57
2019-06-26T05:36:13.417Z,30.20
2019-06-26T05:38:42.671Z,31.17
2019-06-26T05:41:11.973Z,31.17
2019-06-26T05:43:41.310Z,30.23
2019-06-26T05:46:10.570Z,33.00
2019-06-26T05:48:39.862Z,35.60
2019-06-26T05:51:09.082Z,36.63
2019-06-26T05:53:38.374Z,37.50
2019-06-26T05:56:07.662Z,38.87
2019-06-26T05:58:36.995Z,36.73
2019-06-26T06:01:06.377Z,37.17
2019-06-26T06:03:35.680Z,35.63
2019-06-26T06:06:04.958Z,39.53
2019-06-26T06:08:34.330Z,38.00
2019-06-26T06:11:03.667Z,40.33
2019-06-26T06:13:32.937Z,37.97
2019-06-26T06:16:06.165Z,41.60
2019-06-26T06:18:33.202Z,44.40
2019-06-26T06:21:02.523Z,41.57
2019-06-26T06:23:31.866Z,40.93
2019-06-26T06:26:01.187Z,41.90
2019-06-26T06:28:30.606Z,39.40
2019-06-26T06:30:59.933Z,43.80
2019-06-26T06:33:29.409Z,41.97
2019-06-26T06:35:59.088Z,39.37
2019-06-26T06:38:28.480Z,38.37
2019-06-26T06:40:57.857Z,40.80
2019-06-26T06:43:27.102Z,39.60
2019-06-26T06:45:56.510Z,36.97
2019-06-26T06:48:25.791Z,37.03
2019-06-26T06:50:55.092Z,37.73
2019-06-26T06:53:24.397Z,36.47
2019-06-26T06:55:53.769Z,37.00
2019-06-26T06:58:23.075Z,42.70
2019-06-26T07:00:52.345Z,38.53
2019-06-26T07:03:21.644Z,40.98
2019-06-26T07:05:51.201Z,39.15
2019-06-26T07:08:20.492Z,37.97
2019-06-26T07:10:52.131Z,36.85
2019-06-26T07:13:21.410Z,37.13
2019-06-26T07:15:50.873Z,35.58
2019-06-26T07:18:20.192Z,38.17
2019-06-26T07:20:49.485Z,37.03
2019-06-26T07:23:18.907Z,33.60
2019-06-26T07:25:48.323Z,34.88
2019-06-26T07:28:17.681Z,34.50
2019-06-26T07:30:47.171Z,34.27
2019-06-26T07:33:16.678Z,34.77
2019-06-26T07:35:46.356Z,37.17
2019-06-26T07:38:15.649Z,34.10
2019-06-26T07:40:44.961Z,34.10
2019-06-26T07:43:16.547Z,34.53
2019-06-26T07:45:45.363Z,34.15
2019-06-26T07:48:14.649Z,32.90
2019-06-26T07:50:43.916Z,31.12
2019-06-26T07:53:13.185Z,31.75
2019-06-26T07:55:42.516Z,34.13
2019-06-26T07:58:11.739Z,30.40
2019-06-26T08:00:41.110Z,30.88
2019-06-26T08:03:10.429Z,27.53
2019-06-26T08:05:42.803Z,27.58
2019-06-26T08:08:14.359Z,27.52
2019-06-26T08:10:42.272Z,26.20
2019-06-26T08:13:11.572Z,29.37
2019-06-26T08:15:41.378Z,27.60
2019-06-26T08:18:10.759Z,25.68
2019-06-26T08:20:55.033Z,24.12
2019-06-26T08:23:11.357Z,24.45
2019-06-26T08:25:40.820Z,25.05
2019-06-26T08:28:10.164Z,25.48
2019-06-26T08:30:39.801Z,25.60
2019-06-26T08:33:09.254Z,23.80
2019-06-26T08:35:39.638Z,25.00
2019-06-26T08:38:14.117Z,26.00
2019-06-26T08:40:40.095Z,25.12
2019-06-26T08:43:09.518Z,24.98
2019-06-26T08:45:38.892Z,25.95
2019-06-26T08:48:22.698Z,23.55
2019-06-26T08:50:39.205Z,27.50
2019-06-26T08:53:08.491Z,25.23
2019-06-26T08:55:37.775Z,23.32
2019-06-26T08:58:07.111Z,26.40
2019-06-26T09:00:37.415Z,25.45
2019-06-26T09:03:06.732Z,26.12
2019-06-26T09:05:47.380Z,28.17
2019-06-26T09:08:07.487Z,27.80
2019-06-26T09:10:38.793Z,26.10
2019-06-26T09:13:08.150Z,25.32
2019-06-26T09:15:37.567Z,24.87
2019-06-26T09:18:06.864Z,25.40
2019-06-26T09:20:39.327Z,25.57
2019-06-26T09:23:08.977Z,24.10
2019-06-26T09:25:38.246Z,23.27
2019-06-26T09:28:08.059Z,23.83
2019-06-26T09:30:37.358Z,22.40
2019-06-26T09:33:06.661Z,22.73
2019-06-26T09:35:35.947Z,22.85
2019-06-26T09:38:05.450Z,21.07
2019-06-26T09:40:34.903Z,21.05
2019-06-26T09:43:04.201Z,21.62
2019-06-26T09:45:33.636Z,19.32
2019-06-26T09:48:03.009Z,21.45
2019-06-26T09:50:32.277Z,21.40
2019-06-26T09:53:05.043Z,19.92
2019-06-26T09:55:32.760Z,18.60
2019-06-26T09:58:02.050Z,20.10
2019-06-26T10:00:32.782Z,19.80
2019-06-26T10:03:02.282Z,18.77
2019-06-26T10:05:31.582Z,18.62
2019-06-26T10:08:00.887Z,17.17
2019-06-26T10:10:30.455Z,18.25
2019-06-26T10:12:59.984Z,17.32
2019-06-26T10:15:29.420Z,18.02
2019-06-26T10:17:58.721Z,16.73
2019-06-26T10:20:27.965Z,17.57
2019-06-26T10:22:57.337Z,14.83
2019-06-26T10:25:26.681Z,17.07
2019-06-26T10:27:56.018Z,15.00
2019-06-26T10:30:26.030Z,13.78
2019-06-26T10:35:46.797Z,15.90
2019-06-26T10:38:16.160Z,12.85
2019-06-26T10:40:46.813Z,13.43
2019-06-26T10:43:16.130Z,14.98
2019-06-26T10:45:45.521Z,14.58
2019-06-26T10:48:14.838Z,13.38
2019-06-26T10:50:51.074Z,13.58
2019-06-26T10:53:15.106Z,12.75
2019-06-26T10:55:44.583Z,12.05
2019-06-26T10:58:13.900Z,11.50
2019-06-26T11:00:43.246Z,12.58
2019-06-26T11:03:12.624Z,12.53
2019-06-26T11:05:42.427Z,12.37
2019-06-26T11:08:11.688Z,11.75
2019-06-26T11:10:41.034Z,12.07
2019-06-26T11:13:10.277Z,12.07
2019-06-26T11:15:39.613Z,12.45
2019-06-26T11:18:08.932Z,11.50
2019-06-26T11:20:38.270Z,12.45
2019-06-26T11:23:07.611Z,12.37
2019-06-26T11:25:38.425Z,12.68
2019-06-26T11:28:07.780Z,12.05
2019-06-26T11:30:37.162Z,13.32
2019-06-26T11:33:06.528Z,12.63
2019-06-26T11:35:35.866Z,12.60
2019-06-26T11:38:05.157Z,12.05
2019-06-26T11:40:34.521Z,12.00
2019-06-26T11:43:03.949Z,11.57
2019-06-26T11:45:33.473Z,10.78
2019-06-26T11:48:02.832Z,11.75
2019-06-26T11:50:33.718Z,10.78
2019-06-26T11:53:03.014Z,11.10
2019-06-26T11:55:32.329Z,11.43
2019-06-26T11:58:01.628Z,11.60
2019-06-26T12:00:31.276Z,11.50
2019-06-26T12:03:00.691Z,11.38
2019-06-26T12:05:30.085Z,16.05
2019-06-26T12:07:59.382Z,14.75
2019-06-26T12:10:28.796Z,15.08
2019-06-26T12:12:58.194Z,14.28
2019-06-26T12:15:27.860Z,15.23
2019-06-26T12:17:57.304Z,14.68
2019-06-26T12:20:26.673Z,16.15
2019-06-26T12:22:56.047Z,17.05
2019-06-26T12:25:25.531Z,17.32
2019-06-26T12:27:54.839Z,14.93
2019-06-26T12:30:24.433Z,11.78
2019-06-26T12:33:03.093Z,11.88
2019-06-26T12:35:24.948Z,13.75
2019-06-26T12:37:56.123Z,13.85
2019-06-26T12:40:25.650Z,14.00
2019-06-26T12:42:55.861Z,13.93
2019-06-26T12:45:25.578Z,14.03
2019-06-26T12:47:54.931Z,13.38
2019-06-26T12:50:34.810Z,13.83
2019-06-26T12:52:55.584Z,15.32
2019-06-26T12:55:25.069Z,15.83
2019-06-26T12:58:08.386Z,15.68
2019-06-26T13:00:26.212Z,16.85
2019-06-26T13:02:55.560Z,18.77
2019-06-26T13:05:25.132Z,17.55
2019-06-26T13:07:54.399Z,19.42
2019-06-26T13:10:24.333Z,18.00
2019-06-26T13:12:53.636Z,19.67
2019-06-26T13:15:22.913Z,18.98
2019-06-26T13:17:52.192Z,22.98
2019-06-26T13:20:22.371Z,30.00
2019-06-26T13:22:51.698Z,25.15
2019-06-26T13:28:00.455Z,24.32
2019-06-26T13:30:36.680Z,26.35
2019-06-26T13:33:06.105Z,23.65
2019-06-26T13:35:35.439Z,24.05
2019-06-26T13:38:04.878Z,24.45
2019-06-26T13:40:34.393Z,21.82
2019-06-26T13:43:03.923Z,22.42
2019-06-26T13:45:33.264Z,20.95
2019-06-26T13:48:02.765Z,21.77
2019-06-26T13:50:32.275Z,20.95
2019-06-26T13:53:01.609Z,20.27
2019-06-26T13:55:30.930Z,21.17
2019-06-26T13:58:00.306Z,18.30
2019-06-26T14:00:29.664Z,19.37
2019-06-26T14:02:59.038Z,18.92
2019-06-26T14:05:29.543Z,17.95
2019-06-26T14:08:01.237Z,17.30
2019-06-26T14:10:30.566Z,17.37
2019-06-26T14:12:59.869Z,18.62
2019-06-26T14:15:29.239Z,17.37
2019-06-26T14:17:58.606Z,16.17
2019-06-26T14:20:28.461Z,16.37
2019-06-26T14:22:57.803Z,16.73
2019-06-26T14:25:27.238Z,15.20
2019-06-26T14:27:56.626Z,14.78
2019-06-26T14:30:27.972Z,15.25
2019-06-26T14:32:56.941Z,15.03
2019-06-26T14:35:26.217Z,14.47
2019-06-26T14:37:55.658Z,11.55
2019-06-26T14:40:25.914Z,12.65
2019-06-26T14:42:55.238Z,11.78
2019-06-26T14:45:24.569Z,11.57
2019-06-26T14:47:53.965Z,11.75
2019-06-26T14:50:23.388Z,11.57
2019-06-26T14:52:52.818Z,11.63
2019-06-26T14:55:22.735Z,12.15
2019-06-26T14:57:52.084Z,10.85
2019-06-26T15:00:24.723Z,10.18
2019-06-26T15:02:56.459Z,10.13
2019-06-26T15:05:25.805Z,10.28
2019-06-26T15:07:55.416Z,10.35
2019-06-26T15:10:24.748Z,9.43
2019-06-26T15:12:54.091Z,9.48
2019-06-26T15:15:23.426Z,9.98
2019-06-26T15:17:52.743Z,10.53
2019-06-26T15:20:22.094Z,10.68
2019-06-26T15:22:53.018Z,10.23
2019-06-26T15:25:22.718Z,10.88
2019-06-26T15:27:52.042Z,10.60
2019-06-26T15:30:23.854Z,10.63
2019-06-26T15:32:54.479Z,10.95
2019-06-26T15:35:26.574Z,10.98
2019-06-26T15:37:55.921Z,11.33
2019-06-26T15:40:25.323Z,12.10
2019-06-26T15:42:55.053Z,12.65
2019-06-26T15:45:24.525Z,11.88
2019-06-26T15:47:53.888Z,13.68
2019-06-26T15:50:23.200Z,11.73
2019-06-26T15:52:52.570Z,13.65
2019-06-26T15:55:22.235Z,13.43
2019-06-26T15:57:51.556Z,12.88
2019-06-26T16:00:21.030Z,12.98
2019-06-26T16:02:51.574Z,13.85
2019-06-26T16:05:20.833Z,13.25
2019-06-26T16:07:50.219Z,14.40
2019-06-26T16:10:19.634Z,16.17
2019-06-26T16:12:49.052Z,15.10
2019-06-26T16:15:18.704Z,13.72
2019-06-26T16:17:59.685Z,14.38
2019-06-26T16:20:29.078Z,13.78
2019-06-26T16:22:58.380Z,14.30
2019-06-26T16:25:27.870Z,15.40
2019-06-26T16:28:05.150Z,15.90
2019-06-26T16:30:29.905Z,14.80
2019-06-26T16:32:59.265Z,15.15
2019-06-26T16:35:28.585Z,14.65
2019-06-26T16:37:58.008Z,14.78
2019-06-26T16:40:27.492Z,13.13
2019-06-26T16:42:56.893Z,12.07
2019-06-26T16:45:26.166Z,12.90
2019-06-26T16:47:57.424Z,11.78
2019-06-26T16:50:26.833Z,12.43
2019-06-26T16:52:56.274Z,11.15
2019-06-26T16:55:25.692Z,12.13
2019-06-26T16:57:55.403Z,12.07
2019-06-26T17:00:24.796Z,11.78
2019-06-26T17:02:54.230Z,10.90
2019-06-26T17:05:23.671Z,10.70
2019-06-26T17:07:53.051Z,10.58
2019-06-26T17:10:22.612Z,11.18
2019-06-26T17:12:51.921Z,10.53
2019-06-26T17:15:21.837Z,11.10
2019-06-26T17:17:51.236Z,10.95
2019-06-26T17:20:20.871Z,11.18
2019-06-26T17:23:04.614Z,11.20
2019-06-26T17:25:22.756Z,10.05
2019-06-26T17:27:52.102Z,10.98
2019-06-26T17:30:21.527Z,9.90
2019-06-26T17:32:50.862Z,10.55
2019-06-26T17:35:20.221Z,10.63
2019-06-26T17:37:49.742Z,10.63
2019-06-26T17:40:42.987Z,9.50
2019-06-26T17:43:13.117Z,9.33
2019-06-26T17:45:43.770Z,9.58
2019-06-26T17:48:13.063Z,10.60
2019-06-26T17:50:42.504Z,8.70
2019-06-26T17:53:21.115Z,9.20
2019-06-26T17:55:43.037Z,9.28
2019-06-26T17:58:12.427Z,9.30
2019-06-26T18:00:41.858Z,10.20
2019-06-26T18:03:11.396Z,10.28
2019-06-26T18:05:41.126Z,9.03
2019-06-26T18:08:10.642Z,9.45
2019-06-26T18:10:40.124Z,9.15
2019-06-26T18:13:09.467Z,10.30
2019-06-26T18:15:38.894Z,9.70
2019-06-26T18:18:08.225Z,10.50
2019-06-26T18:20:37.657Z,9.88
2019-06-26T18:23:08.034Z,10.25
2019-06-26T18:25:37.501Z,12.68
2019-06-26T18:28:06.832Z,10.23
2019-06-26T18:30:36.394Z,11.60
2019-06-26T18:33:05.909Z,10.82
2019-06-26T18:35:35.446Z,11.15
2019-06-26T18:38:04.768Z,10.50
2019-06-26T18:40:34.122Z,10.13
2019-06-26T18:43:03.574Z,14.28
2019-06-26T18:45:34.073Z,10.50
2019-06-26T18:48:03.581Z,10.23
2019-06-26T18:50:33.086Z,11.10
2019-06-26T18:53:04.243Z,10.93
2019-06-26T18:55:34.718Z,10.23
2019-06-26T18:58:05.219Z,10.85
2019-06-26T19:00:34.629Z,10.13
2019-06-26T19:03:04.035Z,10.88
2019-06-26T19:05:35.414Z,9.33
2019-06-26T19:08:04.906Z,10.48
2019-06-26T19:10:36.212Z,10.17
2019-06-26T19:13:05.585Z,10.20
2019-06-26T19:15:34.943Z,9.20
2019-06-26T19:18:04.355Z,8.40
2019-06-26T19:20:34.022Z,8.43
2019-06-26T19:23:03.393Z,8.60
2019-06-26T19:25:32.903Z,10.40
2019-06-26T19:28:02.277Z,7.90
2019-06-26T19:30:31.686Z,10.60
2019-06-26T19:33:01.045Z,7.77
2019-06-26T19:35:30.760Z,7.60
2019-06-26T19:38:00.200Z,7.10
2019-06-26T19:40:29.663Z,10.43
2019-06-26T19:43:00.627Z,7.70
2019-06-26T19:45:31.496Z,8.63
2019-06-26T19:48:01.129Z,6.27
2019-06-26T19:50:33.048Z,10.30
2019-06-26T19:53:05.778Z,7.73
2019-06-26T19:55:35.286Z,7.33
2019-06-26T19:58:04.776Z,6.93
2019-06-26T20:00:34.309Z,7.60
2019-06-26T20:03:03.972Z,7.57
2019-06-26T20:05:33.449Z,8.13
2019-06-26T20:08:03.044Z,7.50
2019-06-26T20:10:32.827Z,8.93
2019-06-26T20:13:02.171Z,8.00
2019-06-26T20:15:31.723Z,7.30
2019-06-26T20:18:04.198Z,7.90
2019-06-26T20:20:33.800Z,9.07
2019-06-26T20:23:04.593Z,7.27
2019-06-26T20:25:33.944Z,9.47
2019-06-26T20:28:03.382Z,8.67
2019-06-26T20:30:35.000Z,8.43
2019-06-26T20:33:07.559Z,6.83
2019-06-26T20:35:38.894Z,8.53
2019-06-26T20:38:08.042Z,6.43
2019-06-26T20:40:37.376Z,7.23
2019-06-26T20:43:06.710Z,9.13
2019-06-26T20:45:39.569Z,6.93
2019-06-26T20:48:09.021Z,9.17
2019-06-26T20:50:39.882Z,7.87
2019-06-26T20:53:09.229Z,8.03
2019-06-26T20:55:38.563Z,7.90
2019-06-26T20:58:08.068Z,10.40
2019-06-26T21:00:39.218Z,8.77
2019-06-26T21:03:08.598Z,9.03
2019-06-26T21:05:37.939Z,8.33
2019-06-26T21:08:07.315Z,8.10
2019-06-26T21:10:36.739Z,10.50
2019-06-26T21:13:06.090Z,7.27
2019-06-26T21:15:35.538Z,12.07
2019-06-26T21:18:04.967Z,7.27
2019-06-26T21:20:34.303Z,8.77
2019-06-26T21:23:03.825Z,8.53
2019-06-26T21:25:33.220Z,10.73
2019-06-26T21:28:02.789Z,7.57
2019-06-26T21:30:32.262Z,7.13
2019-06-26T21:33:02.892Z,11.07
2019-06-26T21:35:32.247Z,10.13
2019-06-26T21:38:03.011Z,8.77
2019-06-26T21:40:32.430Z,7.30
2019-06-26T21:43:02.603Z,7.93
2019-06-26T21:45:32.121Z,9.33
2019-06-26T21:48:01.433Z,12.87
2019-06-26T21:50:30.849Z,11.10
2019-06-26T21:53:00.198Z,10.20
2019-06-26T21:55:34.078Z,10.30
2019-06-26T21:58:00.839Z,12.00
2019-06-26T22:00:32.731Z,10.30
2019-06-26T22:03:02.152Z,8.73
2019-06-26T22:05:31.506Z,12.27
2019-06-26T22:08:00.887Z,9.83
2019-06-26T22:10:30.327Z,9.83
2019-06-26T22:12:59.883Z,9.93
2019-06-26T22:15:29.359Z,8.33
2019-06-26T22:17:59.682Z,9.93
2019-06-26T22:20:29.229Z,7.90
2019-06-26T22:22:58.905Z,6.50
2019-06-26T22:25:28.227Z,5.63
2019-06-26T22:27:57.553Z,8.43
2019-06-26T22:30:27.063Z,8.47
2019-06-26T22:32:56.799Z,7.53
2019-06-26T22:35:26.214Z,8.23
2019-06-26T22:37:55.494Z,6.33
2019-06-26T22:40:24.887Z,6.90
2019-06-26T22:42:54.610Z,7.90
2019-06-26T22:45:24.060Z,10.10
2019-06-26T22:47:53.374Z,8.67
2019-06-26T22:50:22.894Z,7.47
2019-06-26T22:52:52.356Z,8.60
2019-06-26T22:55:21.741Z,10.47
2019-06-26T22:57:51.200Z,8.43
2019-06-26T23:00:21.744Z,9.80
2019-06-26T23:02:51.471Z,6.37
2019-06-26T23:05:22.965Z,6.67
2019-06-26T23:07:53.163Z,8.20
2019-06-26T23:10:22.672Z,7.97
2019-06-26T23:12:52.575Z,9.00
2019-06-26T23:15:21.906Z,7.63
2019-06-26T23:17:51.267Z,8.50
2019-06-26T23:20:22.431Z,6.47
2019-06-26T23:22:51.878Z,8.40
2019-06-26T23:25:21.187Z,8.20
2019-06-26T23:27:50.524Z,10.80
2019-06-26T23:30:21.437Z,8.97
2019-06-26T23:32:51.126Z,8.90
2019-06-26T23:35:20.394Z,10.33
2019-06-26T23:37:49.695Z,12.43
2019-06-26T23:40:19.447Z,9.30
2019-06-26T23:42:48.749Z,9.23
2019-06-26T23:45:18.480Z,9.13
2019-06-26T23:47:47.824Z,9.50
2019-06-26T23:50:17.156Z,12.53
2019-06-26T23:52:46.554Z,11.60
2019-06-26T23:55:16.151Z,9.87
2019-06-26T23:57:58.471Z,12.67
